createdAt,value
2022-11-17T00:00:41.999Z,43.60
2022-11-17T00:04:47.487Z,47.57
2022-11-17T00:08:50.975Z,45.40
2022-11-17T00:13:11.506Z,43.33
2022-11-17T00:17:15.947Z,42.10
2022-11-17T00:21:19.941Z,45.97
2022-11-17T00:25:23.264Z,40.63
2022-11-17T00:29:26.642Z,41.07
2022-11-17T00:33:47.220Z,49.83
2022-11-17T00:38:05.709Z,43.07
2022-11-17T00:42:09.079Z,38.63
2022-11-17T00:46:12.965Z,47.40
2022-11-17T00:50:16.704Z,40.63
2022-11-17T00:54:24.168Z,43.00
2022-11-17T00:58:30.002Z,41.83
2022-11-17T01:02:35.263Z,45.30
2022-11-17T01:06:41.926Z,32.97
2022-11-17T01:10:55.526Z,45.10
2022-11-17T01:15:03.873Z,40.70
2022-11-17T01:19:11.055Z,42.20
2022-11-17T01:23:20.008Z,42.20
2022-11-17T01:27:26.711Z,38.87
2022-11-17T01:31:33.646Z,38.80
2022-11-17T01:35:38.695Z,40.70
2022-11-17T01:39:43.442Z,42.27
2022-11-17T01:43:54.365Z,39.20
2022-11-17T01:48:05.171Z,41.40
2022-11-17T01:52:19.327Z,41.03
2022-11-17T01:56:28.725Z,34.57
2022-11-17T02:00:45.087Z,44.63
2022-11-17T02:04:57.451Z,44.50
2022-11-17T02:09:07.241Z,33.27
2022-11-17T02:13:14.549Z,33.40
2022-11-17T02:17:24.918Z,37.93
2022-11-17T02:22:05.835Z,35.33
2022-11-17T02:27:28.618Z,33.17
2022-11-17T02:31:43.039Z,39.60
2022-11-17T02:35:54.374Z,33.27
2022-11-17T02:40:05.172Z,35.37
2022-11-17T02:44:34.834Z,31.73
2022-11-17T02:48:51.008Z,37.03
2022-11-17T02:53:10.943Z,36.90
2022-11-17T02:57:33.919Z,31.20
2022-11-17T03:02:23.747Z,30.00
2022-11-17T03:06:49.824Z,32.50
2022-11-17T03:11:03.968Z,32.60
2022-11-17T03:15:33.873Z,33.43
2022-11-17T03:19:49.281Z,33.57
2022-11-17T03:24:10.268Z,35.07
2022-11-17T03:28:18.460Z,29.77
2022-11-17T03:32:39.100Z,30.60
2022-11-17T03:36:58.366Z,32.40
2022-11-17T03:41:19.289Z,31.67
2022-11-17T03:45:34.479Z,23.07
2022-11-17T03:49:55.713Z,26.60
2022-11-17T03:54:18.993Z,29.23
2022-11-17T03:58:32.766Z,28.83
2022-11-17T04:02:39.156Z,33.13
2022-11-17T04:06:46.224Z,27.00
2022-11-17T04:11:17.974Z,31.17
2022-11-17T04:20:22.379Z,25.87
2022-11-17T04:24:31.809Z,25.27
2022-11-17T04:28:40.566Z,29.27
2022-11-17T04:32:51.568Z,29.03
2022-11-17T04:37:06.970Z,30.73
2022-11-17T04:41:36.782Z,27.63
2022-11-17T04:46:18.625Z,28.77
2022-11-17T04:50:32.301Z,32.50
2022-11-17T04:54:56.926Z,33.13
2022-11-17T04:59:04.062Z,25.17
2022-11-17T05:03:12.321Z,20.30
2022-11-17T05:07:22.981Z,24.60
2022-11-17T05:11:46.875Z,18.67
2022-11-17T05:16:09.066Z,20.67
2022-11-17T05:20:17.971Z,22.00
2022-11-17T05:24:41.629Z,22.60
2022-11-17T05:28:53.479Z,20.17
2022-11-17T05:33:13.630Z,19.90
2022-11-17T05:37:18.594Z,20.07
2022-11-17T05:41:29.733Z,16.30
2022-11-17T05:45:34.775Z,23.73
2022-11-17T05:49:42.365Z,17.70
2022-11-17T05:53:45.999Z,23.40
2022-11-17T05:57:52.630Z,23.20
2022-11-17T06:02:02.078Z,24.40
2022-11-17T06:06:06.242Z,20.13
2022-11-17T06:10:10.574Z,22.40
2022-11-17T06:14:15.622Z,25.67
2022-11-17T06:18:20.200Z,21.40
2022-11-17T06:22:24.707Z,21.30
2022-11-17T06:26:31.064Z,24.07
2022-11-17T06:30:39.495Z,19.83
2022-11-17T06:34:56.307Z,28.13
2022-11-17T06:39:02.330Z,24.90
2022-11-17T06:43:11.034Z,23.70
2022-11-17T06:47:21.612Z,27.70
2022-11-17T06:51:26.445Z,32.43
2022-11-17T06:55:32.570Z,32.53
2022-11-17T06:59:37.880Z,31.10
2022-11-17T07:03:46.643Z,35.23
2022-11-17T07:07:51.726Z,35.60
2022-11-17T07:11:58.590Z,25.30
2022-11-17T07:16:06.121Z,30.10
2022-11-17T07:20:12.061Z,26.87
2022-11-17T07:24:24.621Z,24.03
2022-11-17T07:28:28.682Z,29.97
2022-11-17T07:32:33.492Z,30.50
2022-11-17T07:36:38.256Z,35.30
2022-11-17T07:40:41.914Z,39.63
2022-11-17T07:45:04.169Z,21.77
2022-11-17T07:49:07.488Z,22.23
2022-11-17T07:53:12.387Z,23.17
2022-11-17T07:57:16.235Z,22.60
2022-11-17T08:01:19.714Z,16.40
2022-11-17T08:05:23.301Z,19.17
2022-11-17T08:09:28.016Z,22.17
2022-11-17T08:13:31.596Z,21.90
2022-11-17T08:17:35.062Z,31.40
2022-11-17T08:21:38.703Z,17.80
2022-11-17T08:25:43.390Z,17.07
2022-11-17T08:29:46.815Z,17.53
2022-11-17T08:33:50.034Z,17.40
2022-11-17T08:37:53.630Z,16.47
2022-11-17T08:41:58.286Z,18.50
2022-11-17T08:46:02.569Z,22.47
2022-11-17T08:50:07.372Z,18.50
2022-11-17T08:54:12.699Z,14.60
2022-11-17T08:58:17.813Z,15.10
2022-11-17T09:02:21.104Z,15.97
2022-11-17T09:06:24.449Z,14.63
2022-11-17T09:10:27.861Z,14.07
2022-11-17T09:14:32.740Z,16.33
2022-11-17T09:18:37.206Z,18.70
2022-11-17T09:22:40.919Z,14.03
2022-11-17T09:26:44.867Z,13.90
2022-11-17T09:30:49.601Z,14.37
2022-11-17T09:34:52.976Z,13.97
2022-11-17T09:38:56.421Z,14.53
2022-11-17T09:42:59.784Z,12.53
2022-11-17T09:47:15.612Z,12.13
2022-11-17T09:51:21.688Z,15.10
2022-11-17T09:55:34.237Z,13.83
2022-11-17T09:59:38.771Z,16.53
2022-11-17T10:03:46.388Z,15.30
2022-11-17T10:07:52.682Z,14.17
2022-11-17T10:12:07.224Z,15.80
2022-11-17T10:16:14.504Z,16.03
2022-11-17T10:20:19.992Z,14.67
2022-11-17T10:24:37.122Z,13.30
2022-11-17T10:28:40.740Z,13.40
2022-11-17T10:32:50.486Z,13.60
2022-11-17T10:36:55.133Z,22.93
2022-11-17T10:41:01.883Z,15.17
2022-11-17T10:45:06.678Z,16.00
2022-11-17T10:49:25.863Z,14.90
2022-11-17T10:53:42.970Z,9.23
2022-11-17T10:57:51.268Z,11.67
2022-11-17T11:01:54.758Z,12.53
2022-11-17T11:06:22.538Z,19.87
2022-11-17T11:10:33.088Z,13.23
2022-11-17T11:14:40.917Z,13.30
2022-11-17T11:18:44.357Z,20.53
2022-11-17T11:22:58.362Z,19.20
2022-11-17T11:27:13.269Z,22.43
2022-11-17T11:31:25.741Z,23.17
2022-11-17T11:35:55.011Z,24.87
2022-11-17T11:40:11.128Z,26.83
2022-11-17T11:44:55.524Z,23.57
2022-11-17T11:49:04.654Z,23.40
2022-11-17T11:53:17.065Z,22.20
2022-11-17T11:57:26.359Z,20.70
2022-11-17T12:01:38.215Z,23.00
2022-11-17T12:05:50.260Z,22.90
2022-11-17T12:10:04.036Z,24.77
2022-11-17T12:14:08.256Z,21.40
2022-11-17T12:18:33.510Z,18.60
2022-11-17T12:22:59.425Z,15.77
2022-11-17T12:27:33.163Z,15.10
2022-11-17T12:31:44.863Z,17.63
2022-11-17T12:36:31.147Z,16.50
2022-11-17T12:40:45.294Z,17.20
2022-11-17T12:45:09.466Z,15.23
2022-11-17T12:49:21.414Z,16.83
2022-11-17T12:53:54.937Z,16.53
2022-11-17T12:58:10.475Z,15.13
2022-11-17T13:02:47.861Z,15.47
2022-11-17T13:07:02.266Z,17.37
2022-11-17T13:11:12.765Z,22.00
2022-11-17T13:15:24.109Z,18.83
2022-11-17T13:19:39.392Z,17.13
2022-11-17T13:23:45.936Z,15.57
2022-11-17T13:27:56.025Z,18.13
2022-11-17T13:32:17.651Z,20.17
2022-11-17T13:36:24.979Z,16.83
2022-11-17T13:40:28.627Z,19.10
2022-11-17T13:44:34.186Z,16.80
2022-11-17T13:48:39.442Z,14.13
2022-11-17T13:52:46.903Z,18.33
2022-11-17T13:56:54.523Z,14.60
2022-11-17T14:01:00.291Z,15.90
2022-11-17T14:05:23.999Z,13.80
2022-11-17T14:09:28.764Z,16.27
2022-11-17T14:13:33.641Z,12.47
2022-11-17T14:17:38.639Z,15.77
2022-11-17T14:22:00.328Z,17.13
2022-11-17T14:26:03.646Z,15.87
2022-11-17T14:30:08.056Z,14.87
2022-11-17T14:34:13.302Z,14.47
2022-11-17T14:38:23.004Z,14.13
2022-11-17T14:42:27.524Z,19.97
2022-11-17T14:46:32.535Z,16.17
2022-11-17T14:50:40.982Z,12.90
2022-11-17T14:54:52.583Z,15.77
2022-11-17T14:58:59.289Z,19.17
2022-11-17T15:03:02.769Z,18.20
2022-11-17T15:07:07.644Z,17.67
2022-11-17T15:11:16.354Z,20.60
2022-11-17T15:15:20.068Z,11.63
2022-11-17T15:19:23.376Z,15.37
2022-11-17T15:23:28.112Z,18.83
2022-11-17T15:27:32.231Z,18.00
2022-11-17T15:31:35.642Z,17.20
2022-11-17T15:35:38.989Z,15.87
2022-11-17T15:39:43.730Z,25.80
2022-11-17T15:43:47.191Z,16.40
2022-11-17T15:47:50.527Z,15.67
2022-11-17T15:51:54.624Z,18.77
2022-11-17T15:56:03.689Z,17.50
2022-11-17T16:00:08.289Z,18.27
2022-11-17T16:04:13.176Z,29.13
2022-11-17T16:08:16.421Z,19.83
2022-11-17T16:12:21.058Z,19.60
2022-11-17T16:16:25.565Z,18.93
2022-11-17T16:20:28.898Z,21.60
2022-11-17T16:24:32.188Z,17.53
2022-11-17T16:28:36.916Z,21.10
2022-11-17T16:32:40.267Z,19.40
2022-11-17T16:36:44.938Z,22.30
2022-11-17T16:40:48.882Z,19.87
2022-11-17T16:44:57.228Z,19.63
2022-11-17T16:49:03.089Z,21.67
2022-11-17T16:53:06.550Z,20.90
2022-11-17T16:57:16.562Z,19.90
2022-11-17T17:01:24.932Z,25.07
2022-11-17T17:05:36.666Z,23.07
2022-11-17T17:09:40.859Z,19.87
2022-11-17T17:13:44.557Z,25.03
2022-11-17T17:17:50.447Z,18.57
2022-11-17T17:21:54.109Z,23.60
2022-11-17T17:26:05.967Z,24.83
2022-11-17T17:30:11.118Z,17.80
2022-11-17T17:34:17.211Z,20.37
2022-11-17T17:38:22.407Z,23.90
2022-11-17T17:42:26.668Z,20.73
2022-11-17T17:46:34.678Z,20.43
2022-11-17T17:50:41.514Z,21.43
2022-11-17T17:54:45.622Z,22.30
2022-11-17T17:58:51.821Z,21.57
2022-11-17T18:02:58.009Z,20.80
2022-11-17T18:07:04.219Z,24.20
2022-11-17T18:11:10.387Z,22.63
2022-11-17T18:15:14.456Z,25.07
2022-11-17T18:19:26.911Z,30.70
2022-11-17T18:23:38.894Z,31.77
2022-11-17T18:27:55.221Z,30.57
2022-11-17T18:31:59.649Z,29.23
2022-11-17T18:36:10.491Z,25.30
2022-11-17T18:40:16.667Z,29.77
2022-11-17T18:44:26.472Z,28.60
2022-11-17T18:48:35.695Z,29.80
2022-11-17T18:52:43.783Z,28.53
2022-11-17T18:56:50.928Z,26.93
2022-11-17T19:00:55.266Z,32.60
2022-11-17T19:05:01.826Z,26.17
2022-11-17T19:09:09.733Z,23.67
2022-11-17T19:13:16.910Z,22.50
2022-11-17T19:17:24.150Z,24.53
2022-11-17T19:21:31.794Z,20.57
2022-11-17T19:25:39.682Z,22.57
2022-11-17T19:29:47.652Z,21.80
2022-11-17T19:33:55.711Z,19.07
2022-11-17T19:38:00.212Z,23.77
2022-11-17T19:42:05.789Z,22.03
2022-11-17T19:46:13.780Z,24.67
2022-11-17T19:50:21.370Z,24.57
2022-11-17T19:54:33.467Z,24.73
2022-11-17T19:58:41.517Z,22.17
2022-11-17T20:03:02.253Z,20.67
2022-11-17T20:07:12.659Z,24.50
2022-11-17T20:11:20.677Z,20.17
2022-11-17T20:15:34.427Z,23.53
2022-11-17T20:19:41.250Z,29.37
2022-11-17T20:23:46.292Z,26.70
2022-11-17T20:27:52.038Z,26.17
2022-11-17T20:31:56.542Z,22.87
2022-11-17T20:36:08.812Z,25.13
2022-11-17T20:40:19.770Z,30.50
2022-11-17T20:44:29.882Z,23.47
2022-11-17T20:48:35.692Z,22.87
2022-11-17T20:52:44.237Z,37.90
2022-11-17T20:56:50.043Z,32.30
2022-11-17T21:00:55.583Z,23.43
2022-11-17T21:04:59.693Z,29.90
2022-11-17T21:09:04.629Z,27.10
2022-11-17T21:13:08.967Z,27.57
2022-11-17T21:17:32.998Z,25.83
2022-11-17T21:21:38.473Z,26.80
2022-11-17T21:25:43.583Z,30.27
2022-11-17T21:29:48.066Z,32.93
2022-11-17T21:33:54.252Z,34.33
2022-11-17T21:37:57.913Z,33.77
2022-11-17T21:42:02.624Z,45.83
2022-11-17T21:46:07.274Z,46.00
2022-11-17T21:50:11.654Z,48.70
2022-11-17T21:54:15.041Z,42.07
2022-11-17T21:58:19.725Z,35.70
2022-11-17T22:02:23.358Z,45.67
2022-11-17T22:06:27.572Z,35.40
2022-11-17T22:10:30.847Z,38.53
2022-11-17T22:14:35.529Z,43.17
2022-11-17T22:18:39.108Z,38.90
2022-11-17T22:22:42.350Z,36.30
2022-11-17T22:26:46.403Z,34.23
2022-11-17T22:30:51.166Z,37.77
2022-11-17T22:34:55.741Z,31.77
2022-11-17T22:38:58.999Z,36.60
2022-11-17T22:43:05.231Z,36.03
2022-11-17T22:47:10.923Z,34.70
2022-11-17T22:51:36.711Z,36.17
2022-11-17T22:55:40.031Z,39.33
2022-11-17T22:59:43.339Z,39.40
2022-11-17T23:03:48.901Z,31.47
2022-11-17T23:07:52.197Z,35.40
2022-11-17T23:11:55.494Z,31.97
2022-11-17T23:15:59.157Z,28.80
2022-11-17T23:20:04.366Z,39.53
2022-11-17T23:24:09.971Z,26.83
2022-11-17T23:28:13.357Z,29.47
2022-11-17T23:32:16.624Z,28.57
2022-11-17T23:36:23.045Z,27.37
2022-11-17T23:40:26.317Z,24.93
2022-11-17T23:44:29.570Z,26.43
2022-11-17T23:48:32.874Z,23.43
2022-11-17T23:52:37.593Z,29.70
2022-11-17T23:56:40.972Z,28.13
